sensor_id;sensor_type;location;lat;lon;timestamp;pressure;altitude;pressure_sealevel;temperature;humidity
36062;BME280;22123;52.412;20.970;2023-04-27T00:02:10;100721.44;;;-1.09;100.00
36062;BME280;22123;52.412;20.970;2023-04-27T00:04:36;100720.78;;;-1.13;100.00
36062;BME280;22123;52.412;20.970;2023-04-27T00:07:02;100741.34;;;-1.03;100.00
36062;BME280;22123;52.412;20.970;2023-04-27T00:09:28;100743.41;;;-1.09;100.00
36062;BME280;22123;52.412;20.970;2023-04-27T00:11:54;100716.00;;;-1.22;100.00
36062;BME280;22123;52.412;20.970;2023-04-27T00:14:20;100762.22;;;-0.99;100.00
36062;BME280;22123;52.412;20.970;2023-04-27T00:16:46;100728.28;;;-1.21;100.00
36062;BME280;22123;52.412;20.970;2023-04-27T00:19:12;100731.88;;;-1.22;100.00
36062;BME280;22123;52.412;20.970;2023-04-27T00:21:38;100760.13;;;-1.08;100.00
36062;BME280;22123;52.412;20.970;2023-04-27T00:24:04;100708.22;;;-1.40;100.00
36062;BME280;22123;52.412;20.970;2023-04-27T00:26:30;100731.56;;;-1.32;100.00
36062;BME280;22123;52.412;20.970;2023-04-27T00:28:56;100766.81;;;-1.17;100.00
36062;BME280;22123;52.412;20.970;2023-04-27T00:31:22;100735.50;;;-1.39;100.00
36062;BME280;22123;52.412;20.970;2023-04-27T00:33:48;100735.84;;;-1.45;100.00
36062;BME280;22123;52.412;20.970;2023-04-27T00:36:14;100759.84;;;-1.34;100.00
36062;BME280;22123;52.412;20.970;2023-04-27T00:38:39;100721.28;;;-1.52;100.00
36062;BME280;22123;52.412;20.970;2023-04-27T00:41:06;100756.19;;;-1.31;100.00
36062;BME280;22123;52.412;20.970;2023-04-27T00:43:41;100755.59;;;-1.36;100.00
36062;BME280;22123;52.412;20.970;2023-04-27T00:46:07;100771.19;;;-1.32;100.00
36062;BME280;22123;52.412;20.970;2023-04-27T00:48:34;100726.19;;;-1.61;100.00
36062;BME280;22123;52.412;20.970;2023-04-27T00:50:59;100710.28;;;-1.75;100.00
36062;BME280;22123;52.412;20.970;2023-04-27T00:53:25;100775.97;;;-1.38;100.00
36062;BME280;22123;52.412;20.970;2023-04-27T00:55:51;100777.91;;;-1.42;100.00
36062;BME280;22123;52.412;20.970;2023-04-27T00:58:17;100727.97;;;-1.77;100.00
36062;BME280;22123;52.412;20.970;2023-04-27T01:00:43;100785.19;;;-1.46;100.00
36062;BME280;22123;52.412;20.970;2023-04-27T01:03:09;100747.53;;;-1.65;100.00
36062;BME280;22123;52.412;20.970;2023-04-27T01:05:35;100733.69;;;-1.85;100.00
36062;BME280;22123;52.412;20.970;2023-04-27T01:08:02;100753.06;;;-1.70;100.00
36062;BME280;22123;52.412;20.970;2023-04-27T01:10:28;100735.53;;;-1.87;100.00
36062;BME280;22123;52.412;20.970;2023-04-27T01:12:53;100735.63;;;-1.88;100.00
36062;BME280;22123;52.412;20.970;2023-04-27T01:15:19;100764.66;;;-1.72;100.00
36062;BME280;22123;52.412;20.970;2023-04-27T01:17:45;100770.91;;;-1.73;100.00
36062;BME280;22123;52.412;20.970;2023-04-27T01:20:11;100761.00;;;-1.86;100.00
36062;BME280;22123;52.412;20.970;2023-04-27T01:22:37;100762.88;;;-1.88;100.00
36062;BME280;22123;52.412;20.970;2023-04-27T01:25:03;100795.41;;;-1.71;100.00
36062;BME280;22123;52.412;20.970;2023-04-27T01:27:29;100790.03;;;-1.70;100.00
36062;BME280;22123;52.412;20.970;2023-04-27T01:29:55;100789.38;;;-1.73;100.00
36062;BME280;22123;52.412;20.970;2023-04-27T01:32:21;100766.38;;;-1.87;100.00
36062;BME280;22123;52.412;20.970;2023-04-27T01:34:47;100750.69;;;-2.06;100.00
36062;BME280;22123;52.412;20.970;2023-04-27T01:37:12;100781.53;;;-1.91;100.00
36062;BME280;22123;52.412;20.970;2023-04-27T01:39:38;100747.31;;;-2.08;100.00
36062;BME280;22123;52.412;20.970;2023-04-27T01:42:04;100773.09;;;-1.98;100.00
36062;BME280;22123;52.412;20.970;2023-04-27T01:44:30;100762.19;;;-2.07;100.00
36062;BME280;22123;52.412;20.970;2023-04-27T01:46:56;100779.56;;;-2.03;100.00
36062;BME280;22123;52.412;20.970;2023-04-27T01:49:22;100765.00;;;-2.11;100.00
36062;BME280;22123;52.412;20.970;2023-04-27T01:51:48;100785.09;;;-2.08;100.00
36062;BME280;22123;52.412;20.970;2023-04-27T01:54:14;100786.72;;;-2.05;100.00
36062;BME280;22123;52.412;20.970;2023-04-27T01:56:40;100757.16;;;-2.28;100.00
36062;BME280;22123;52.412;20.970;2023-04-27T01:59:06;100772.47;;;-2.19;100.00
36062;BME280;22123;52.412;20.970;2023-04-27T02:01:32;100766.59;;;-2.24;100.00
36062;BME280;22123;52.412;20.970;2023-04-27T02:03:58;100776.81;;;-2.18;100.00
36062;BME280;22123;52.412;20.970;2023-04-27T02:06:24;100816.41;;;-2.02;100.00
36062;BME280;22123;52.412;20.970;2023-04-27T02:08:49;100805.94;;;-2.03;100.00
36062;BME280;22123;52.412;20.970;2023-04-27T02:11:15;100767.78;;;-2.30;100.00
36062;BME280;22123;52.412;20.970;2023-04-27T02:13:41;100794.19;;;-2.14;100.00
36062;BME280;22123;52.412;20.970;2023-04-27T02:16:07;100767.84;;;-2.31;100.00
36062;BME280;22123;52.412;20.970;2023-04-27T02:18:33;100766.22;;;-2.34;100.00
36062;BME280;22123;52.412;20.970;2023-04-27T02:20:59;100772.97;;;-2.28;100.00
36062;BME280;22123;52.412;20.970;2023-04-27T02:23:25;100759.31;;;-2.36;100.00
36062;BME280;22123;52.412;20.970;2023-04-27T02:25:51;100791.78;;;-2.18;100.00
36062;BME280;22123;52.412;20.970;2023-04-27T02:28:16;100797.75;;;-2.15;100.00
36062;BME280;22123;52.412;20.970;2023-04-27T02:30:42;100770.34;;;-2.28;100.00
36062;BME280;22123;52.412;20.970;2023-04-27T02:33:08;100750.81;;;-2.41;100.00
36062;BME280;22123;52.412;20.970;2023-04-27T02:35:34;100768.13;;;-2.36;100.00
36062;BME280;22123;52.412;20.970;2023-04-27T02:38:00;100767.06;;;-2.33;100.00
36062;BME280;22123;52.412;20.970;2023-04-27T02:40:26;100771.25;;;-2.29;100.00
36062;BME280;22123;52.412;20.970;2023-04-27T02:42:52;100791.63;;;-2.15;100.00
36062;BME280;22123;52.412;20.970;2023-04-27T02:45:18;100802.78;;;-2.10;100.00
36062;BME280;22123;52.412;20.970;2023-04-27T02:47:43;100799.53;;;-2.15;100.00
36062;BME280;22123;52.412;20.970;2023-04-27T02:50:09;100780.13;;;-2.30;100.00
36062;BME280;22123;52.412;20.970;2023-04-27T02:52:35;100805.56;;;-2.13;100.00
36062;BME280;22123;52.412;20.970;2023-04-27T02:55:01;100789.41;;;-2.23;100.00
36062;BME280;22123;52.412;20.970;2023-04-27T02:57:27;100793.06;;;-2.25;100.00
36062;BME280;22123;52.412;20.970;2023-04-27T02:59:53;100770.84;;;-2.37;100.00
36062;BME280;22123;52.412;20.970;2023-04-27T03:02:19;100775.84;;;-2.33;100.00
36062;BME280;22123;52.412;20.970;2023-04-27T03:04:45;100799.97;;;-2.23;100.00
36062;BME280;22123;52.412;20.970;2023-04-27T03:07:10;100775.31;;;-2.39;100.00
36062;BME280;22123;52.412;20.970;2023-04-27T03:09:36;100797.53;;;-2.28;100.00
36062;BME280;22123;52.412;20.970;2023-04-27T03:12:03;100787.66;;;-2.40;100.00
36062;BME280;22123;52.412;20.970;2023-04-27T03:14:29;100824.22;;;-2.16;100.00
36062;BME280;22123;52.412;20.970;2023-04-27T03:16:55;100821.66;;;-2.18;100.00
36062;BME280;22123;52.412;20.970;2023-04-27T03:19:20;100797.34;;;-2.40;100.00
36062;BME280;22123;52.412;20.970;2023-04-27T03:21:46;100813.69;;;-2.34;100.00
36062;BME280;22123;52.412;20.970;2023-04-27T03:24:12;100796.00;;;-2.48;100.00
36062;BME280;22123;52.412;20.970;2023-04-27T03:26:38;100802.78;;;-2.43;100.00
36062;BME280;22123;52.412;20.970;2023-04-27T03:29:04;100828.34;;;-2.28;100.00
36062;BME280;22123;52.412;20.970;2023-04-27T03:31:30;100792.09;;;-2.58;100.00
36062;BME280;22123;52.412;20.970;2023-04-27T03:33:56;100794.72;;;-2.58;100.00
36062;BME280;22123;52.412;20.970;2023-04-27T03:36:21;100797.38;;;-2.58;100.00
36062;BME280;22123;52.412;20.970;2023-04-27T03:38:47;100805.19;;;-2.56;100.00
36062;BME280;22123;52.412;20.970;2023-04-27T03:41:13;100798.91;;;-2.54;100.00
36062;BME280;22123;52.412;20.970;2023-04-27T03:43:39;100796.19;;;-2.52;100.00
36062;BME280;22123;52.412;20.970;2023-04-27T03:46:05;100777.53;;;-2.65;100.00
36062;BME280;22123;52.412;20.970;2023-04-27T03:48:31;100799.78;;;-2.53;100.00
36062;BME280;22123;52.412;20.970;2023-04-27T03:50:57;100774.97;;;-2.67;100.00
36062;BME280;22123;52.412;20.970;2023-04-27T03:53:24;100831.47;;;-2.37;100.00
36062;BME280;22123;52.412;20.970;2023-04-27T03:55:50;100819.44;;;-2.25;100.00
36062;BME280;22123;52.412;20.970;2023-04-27T03:58:16;100810.22;;;-2.34;100.00
36062;BME280;22123;52.412;20.970;2023-04-27T04:00:42;100812.38;;;-2.25;100.00
36062;BME280;22123;52.412;20.970;2023-04-27T04:03:08;100801.91;;;-2.27;100.00
36062;BME280;22123;52.412;20.970;2023-04-27T04:05:33;100825.94;;;-1.99;100.00
36062;BME280;22123;52.412;20.970;2023-04-27T04:07:59;100825.03;;;-1.82;100.00
36062;BME280;22123;52.412;20.970;2023-04-27T04:10:25;100823.53;;;-1.70;100.00
36062;BME280;22123;52.412;20.970;2023-04-27T04:12:51;100825.91;;;-1.50;100.00
36062;BME280;22123;52.412;20.970;2023-04-27T04:15:17;100853.91;;;-1.15;100.00
36062;BME280;22123;52.412;20.970;2023-04-27T04:17:43;100825.03;;;-1.18;100.00
36062;BME280;22123;52.412;20.970;2023-04-27T04:20:10;100844.47;;;-0.89;100.00
36062;BME280;22123;52.412;20.970;2023-04-27T04:22:37;100818.22;;;-0.92;100.00
36062;BME280;22123;52.412;20.970;2023-04-27T04:25:03;100860.25;;;-0.57;100.00
36062;BME280;22123;52.412;20.970;2023-04-27T04:27:29;100837.13;;;-0.54;100.00
36062;BME280;22123;52.412;20.970;2023-04-27T04:29:55;100859.56;;;-0.30;100.00
36062;BME280;22123;52.412;20.970;2023-04-27T04:32:21;100850.56;;;-0.28;100.00
36062;BME280;22123;52.412;20.970;2023-04-27T04:34:48;100828.25;;;-0.38;100.00
36062;BME280;22123;52.412;20.970;2023-04-27T04:37:13;100833.44;;;-0.37;100.00
36062;BME280;22123;52.412;20.970;2023-04-27T04:39:39;100830.06;;;-0.39;100.00
36062;BME280;22123;52.412;20.970;2023-04-27T04:42:05;100817.03;;;-0.42;100.00
36062;BME280;22123;52.412;20.970;2023-04-27T04:44:31;100840.16;;;-0.31;100.00
36062;BME280;22123;52.412;20.970;2023-04-27T04:46:57;100824.66;;;-0.37;100.00
36062;BME280;22123;52.412;20.970;2023-04-27T04:49:23;100846.88;;;-0.25;100.00
36062;BME280;22123;52.412;20.970;2023-04-27T04:51:49;100847.00;;;-0.12;100.00
36062;BME280;22123;52.412;20.970;2023-04-27T04:54:14;100815.13;;;-0.11;100.00
36062;BME280;22123;52.412;20.970;2023-04-27T04:56:40;100810.03;;;0.01;100.00
36062;BME280;22123;52.412;20.970;2023-04-27T04:59:06;100853.38;;;0.41;100.00
36062;BME280;22123;52.412;20.970;2023-04-27T05:01:32;100831.38;;;0.41;100.00
36062;BME280;22123;52.412;20.970;2023-04-27T05:03:58;100862.03;;;0.72;100.00
36062;BME280;22123;52.412;20.970;2023-04-27T05:06:24;100867.41;;;0.71;100.00
36062;BME280;22123;52.412;20.970;2023-04-27T05:08:50;100850.47;;;0.73;100.00
36062;BME280;22123;52.412;20.970;2023-04-27T05:11:16;100879.44;;;1.03;100.00
36062;BME280;22123;52.412;20.970;2023-04-27T05:13:42;100858.84;;;0.94;100.00
36062;BME280;22123;52.412;20.970;2023-04-27T05:16:08;100827.31;;;0.90;100.00
36062;BME280;22123;52.412;20.970;2023-04-27T05:18:34;100854.25;;;1.24;100.00
36062;BME280;22123;52.412;20.970;2023-04-27T05:21:00;100829.00;;;1.18;100.00
36062;BME280;22123;52.412;20.970;2023-04-27T05:23:25;100883.59;;;1.61;100.00
36062;BME280;22123;52.412;20.970;2023-04-27T05:25:52;100875.78;;;1.72;100.00
36062;BME280;22123;52.412;20.970;2023-04-27T05:28:18;100839.66;;;1.69;100.00
36062;BME280;22123;52.412;20.970;2023-04-27T05:30:44;100824.81;;;1.67;100.00
36062;BME280;22123;52.412;20.970;2023-04-27T05:33:10;100855.59;;;1.95;100.00
36062;BME280;22123;52.412;20.970;2023-04-27T05:35:36;100859.75;;;2.12;100.00
36062;BME280;22123;52.412;20.970;2023-04-27T05:38:01;100817.03;;;2.02;100.00
36062;BME280;22123;52.412;20.970;2023-04-27T05:40:27;100838.13;;;2.30;100.00
36062;BME280;22123;52.412;20.970;2023-04-27T05:42:53;100885.03;;;2.68;100.00
36062;BME280;22123;52.412;20.970;2023-04-27T05:45:19;100884.25;;;2.78;100.00
36062;BME280;22123;52.412;20.970;2023-04-27T05:47:45;100876.41;;;2.77;100.00
36062;BME280;22123;52.412;20.970;2023-04-27T05:50:11;100867.97;;;2.83;100.00
36062;BME280;22123;52.412;20.970;2023-04-27T05:52:37;100861.47;;;2.87;100.00
36062;BME280;22123;52.412;20.970;2023-04-27T05:55:03;100857.56;;;3.04;100.00
36062;BME280;22123;52.412;20.970;2023-04-27T05:57:30;100847.13;;;3.01;100.00
36062;BME280;22123;52.412;20.970;2023-04-27T05:59:55;100836.06;;;3.07;100.00
36062;BME280;22123;52.412;20.970;2023-04-27T06:02:21;100871.00;;;3.38;100.00
36062;BME280;22123;52.412;20.970;2023-04-27T06:04:47;100855.03;;;3.38;100.00
36062;BME280;22123;52.412;20.970;2023-04-27T06:07:14;100870.56;;;3.56;100.00
36062;BME280;22123;52.412;20.970;2023-04-27T06:09:40;100899.19;;;3.88;100.00
36062;BME280;22123;52.412;20.970;2023-04-27T06:12:07;100881.44;;;3.88;100.00
36062;BME280;22123;52.412;20.970;2023-04-27T06:14:35;100865.53;;;3.87;100.00
36062;BME280;22123;52.412;20.970;2023-04-27T06:17:02;100850.19;;;3.90;100.00
36062;BME280;22123;52.412;20.970;2023-04-27T06:19:28;100850.31;;;4.00;100.00
36062;BME280;22123;52.412;20.970;2023-04-27T06:21:54;100861.44;;;4.16;100.00
36062;BME280;22123;52.412;20.970;2023-04-27T06:24:20;100863.63;;;4.34;100.00
36062;BME280;22123;52.412;20.970;2023-04-27T06:26:48;100890.03;;;4.60;100.00
36062;BME280;22123;52.412;20.970;2023-04-27T06:29:13;100888.19;;;4.72;100.00
36062;BME280;22123;52.412;20.970;2023-04-27T06:31:39;100895.28;;;4.94;100.00
36062;BME280;22123;52.412;20.970;2023-04-27T06:34:05;100842.47;;;4.76;100.00
36062;BME280;22123;52.412;20.970;2023-04-27T06:36:32;100916.56;;;5.28;100.00
36062;BME280;22123;52.412;20.970;2023-04-27T06:38:58;100888.03;;;5.28;100.00
36062;BME280;22123;52.412;20.970;2023-04-27T06:41:24;100908.78;;;5.57;100.00
36062;BME280;22123;52.412;20.970;2023-04-27T06:43:52;100875.91;;;5.56;100.00
36062;BME280;22123;52.412;20.970;2023-04-27T06:46:18;100874.84;;;5.69;100.00
36062;BME280;22123;52.412;20.970;2023-04-27T06:48:44;100876.63;;;5.80;100.00
36062;BME280;22123;52.412;20.970;2023-04-27T06:51:10;100881.69;;;5.83;100.00
36062;BME280;22123;52.412;20.970;2023-04-27T06:53:36;100873.59;;;5.94;100.00
36062;BME280;22123;52.412;20.970;2023-04-27T06:56:02;100899.97;;;6.30;100.00
36062;BME280;22123;52.412;20.970;2023-04-27T06:58:28;100860.28;;;6.25;100.00
36062;BME280;22123;52.412;20.970;2023-04-27T07:00:54;100877.94;;;6.47;100.00
36062;BME280;22123;52.412;20.970;2023-04-27T07:03:20;100905.94;;;6.74;100.00
36062;BME280;22123;52.412;20.970;2023-04-27T07:05:46;100901.19;;;6.97;100.00
36062;BME280;22123;52.412;20.970;2023-04-27T07:08:12;100889.78;;;7.05;100.00
36062;BME280;22123;52.412;20.970;2023-04-27T07:10:38;100869.47;;;7.02;100.00
36062;BME280;22123;52.412;20.970;2023-04-27T07:13:04;100887.25;;;7.32;100.00
36062;BME280;22123;52.412;20.970;2023-04-27T07:15:30;100917.44;;;7.64;100.00
36062;BME280;22123;52.412;20.970;2023-04-27T07:17:56;100882.19;;;7.49;100.00
36062;BME280;22123;52.412;20.970;2023-04-27T07:20:23;100911.78;;;7.87;100.00
36062;BME280;22123;52.412;20.970;2023-04-27T07:22:49;100889.75;;;7.83;100.00
36062;BME280;22123;52.412;20.970;2023-04-27T07:25:16;100906.94;;;8.00;100.00
36062;BME280;22123;52.412;20.970;2023-04-27T07:27:42;100895.31;;;8.19;100.00
36062;BME280;22123;52.412;20.970;2023-04-27T07:30:08;100889.19;;;8.36;100.00
36062;BME280;22123;52.412;20.970;2023-04-27T07:32:35;100885.16;;;8.60;100.00
36062;BME280;22123;52.412;20.970;2023-04-27T07:35:01;100901.13;;;8.90;100.00
36062;BME280;22123;52.412;20.970;2023-04-27T07:37:26;100923.31;;;9.28;100.00
36062;BME280;22123;52.412;20.970;2023-04-27T07:39:52;100890.47;;;9.96;100.00
36062;BME280;22123;52.412;20.970;2023-04-27T07:42:19;100902.13;;;11.17;100.00
36062;BME280;22123;52.412;20.970;2023-04-27T07:44:45;100892.72;;;12.20;100.00
36062;BME280;22123;52.412;20.970;2023-04-27T07:47:10;100907.97;;;13.15;100.00
36062;BME280;22123;52.412;20.970;2023-04-27T07:49:36;100887.44;;;13.05;100.00
36062;BME280;22123;52.412;20.970;2023-04-27T07:52:02;100871.69;;;13.79;100.00
36062;BME280;22123;52.412;20.970;2023-04-27T07:54:28;100898.16;;;16.04;100.00
36062;BME280;22123;52.412;20.970;2023-04-27T07:56:54;100836.63;;;15.83;100.00
36062;BME280;22123;52.412;20.970;2023-04-27T07:59:20;100896.78;;;16.15;100.00
36062;BME280;22123;52.412;20.970;2023-04-27T08:01:46;100885.47;;;16.46;100.00
36062;BME280;22123;52.412;20.970;2023-04-27T08:04:12;100906.19;;;16.96;100.00
36062;BME280;22123;52.412;20.970;2023-04-27T08:06:39;100902.72;;;18.49;74.41
36062;BME280;22123;52.412;20.970;2023-04-27T08:09:05;100891.56;;;21.16;42.87
36062;BME280;22123;52.412;20.970;2023-04-27T08:11:31;100873.03;;;23.59;34.81
36062;BME280;22123;52.412;20.970;2023-04-27T08:13:56;100878.28;;;25.22;31.28
36062;BME280;22123;52.412;20.970;2023-04-27T08:16:22;100855.13;;;25.83;29.78
36062;BME280;22123;52.412;20.970;2023-04-27T08:18:48;100891.25;;;26.72;28.92
36062;BME280;22123;52.412;20.970;2023-04-27T08:21:14;100881.97;;;27.09;26.39
36062;BME280;22123;52.412;20.970;2023-04-27T08:23:41;100888.88;;;27.01;26.34
36062;BME280;22123;52.412;20.970;2023-04-27T08:26:07;100873.38;;;25.57;26.82
36062;BME280;22123;52.412;20.970;2023-04-27T08:28:33;100878.16;;;22.40;29.64
36062;BME280;22123;52.412;20.970;2023-04-27T08:30:58;100917.38;;;19.84;33.39
36062;BME280;22123;52.412;20.970;2023-04-27T08:33:24;100885.53;;;18.49;37.36
36062;BME280;22123;52.412;20.970;2023-04-27T08:35:52;100900.91;;;18.95;38.14
36062;BME280;22123;52.412;20.970;2023-04-27T08:38:18;100890.59;;;19.04;37.75
36062;BME280;22123;52.412;20.970;2023-04-27T08:40:44;100902.94;;;18.61;37.98
36062;BME280;22123;52.412;20.970;2023-04-27T08:43:10;100868.53;;;16.44;38.75
36062;BME280;22123;52.412;20.970;2023-04-27T08:45:36;100889.94;;;15.47;41.92
36062;BME280;22123;52.412;20.970;2023-04-27T08:48:02;100917.53;;;14.78;44.69
36062;BME280;22123;52.412;20.970;2023-04-27T08:50:28;100905.81;;;14.03;47.39
36062;BME280;22123;52.412;20.970;2023-04-27T08:52:53;100896.59;;;13.28;49.17
36062;BME280;22123;52.412;20.970;2023-04-27T08:55:19;100912.25;;;12.78;51.22
36062;BME280;22123;52.412;20.970;2023-04-27T08:57:55;100885.44;;;12.12;54.71
36062;BME280;22123;52.412;20.970;2023-04-27T09:00:23;100922.91;;;11.98;56.07
36062;BME280;22123;52.412;20.970;2023-04-27T09:02:49;100904.84;;;11.49;58.38
36062;BME280;22123;52.412;20.970;2023-04-27T09:05:16;100883.44;;;11.23;58.29
36062;BME280;22123;52.412;20.970;2023-04-27T09:07:43;100908.66;;;11.06;61.23
36062;BME280;22123;52.412;20.970;2023-04-27T09:10:09;100920.91;;;10.92;65.94
36062;BME280;22123;52.412;20.970;2023-04-27T09:12:35;100935.41;;;10.91;64.89
36062;BME280;22123;52.412;20.970;2023-04-27T09:15:02;100900.63;;;10.63;66.00
36062;BME280;22123;52.412;20.970;2023-04-27T09:17:29;100909.75;;;10.70;68.14
36062;BME280;22123;52.412;20.970;2023-04-27T09:20:05;100925.72;;;11.31;73.40
36062;BME280;22123;52.412;20.970;2023-04-27T09:22:43;100819.09;;;11.45;66.75
36062;BME280;22123;52.412;20.970;2023-04-27T09:25:10;100890.66;;;12.22;61.70
36062;BME280;22123;52.412;20.970;2023-04-27T09:27:38;100910.63;;;12.60;58.81
36062;BME280;22123;52.412;20.970;2023-04-27T09:30:13;100889.94;;;12.44;57.96
36062;BME280;22123;52.412;20.970;2023-04-27T09:32:48;100884.78;;;12.18;58.40
36062;BME280;22123;52.412;20.970;2023-04-27T09:35:20;100870.16;;;11.79;59.79
36062;BME280;22123;52.412;20.970;2023-04-27T09:37:48;100905.88;;;11.48;58.03
36062;BME280;22123;52.412;20.970;2023-04-27T09:40:14;100887.28;;;11.04;61.11
36062;BME280;22123;52.412;20.970;2023-04-27T09:42:40;100906.28;;;10.86;61.25
36062;BME280;22123;52.412;20.970;2023-04-27T09:45:09;100888.25;;;10.44;63.13
36062;BME280;22123;52.412;20.970;2023-04-27T09:47:35;100917.94;;;10.60;62.97
36062;BME280;22123;52.412;20.970;2023-04-27T09:50:01;100879.97;;;10.37;64.73
36062;BME280;22123;52.412;20.970;2023-04-27T09:52:28;100908.66;;;10.55;64.58
36062;BME280;22123;52.412;20.970;2023-04-27T09:54:56;100921.69;;;10.68;63.18
36062;BME280;22123;52.412;20.970;2023-04-27T10:08:59;100897.19;;;10.18;63.53
36062;BME280;22123;52.412;20.970;2023-04-27T10:11:38;100918.28;;;10.57;62.83
36062;BME280;22123;52.412;20.970;2023-04-27T10:14:06;100921.41;;;10.87;65.17
36062;BME280;22123;52.412;20.970;2023-04-27T10:16:43;100916.00;;;11.88;62.64
36062;BME280;22123;52.412;20.970;2023-04-27T10:19:09;100899.44;;;13.57;54.27
36062;BME280;22123;52.412;20.970;2023-04-27T10:21:35;100902.72;;;13.91;49.99
36062;BME280;22123;52.412;20.970;2023-04-27T10:24:07;100879.16;;;13.30;48.91
36062;BME280;22123;52.412;20.970;2023-04-27T10:26:33;100909.81;;;13.22;51.61
36062;BME280;22123;52.412;20.970;2023-04-27T10:29:07;100900.81;;;12.99;53.55
36062;BME280;22123;52.412;20.970;2023-04-27T10:31:33;100885.19;;;13.64;51.63
36062;BME280;22123;52.412;20.970;2023-04-27T10:34:07;100878.25;;;16.25;46.95
36062;BME280;22123;52.412;20.970;2023-04-27T10:36:34;100875.09;;;18.39;40.02
36062;BME280;22123;52.412;20.970;2023-04-27T10:39:00;100881.25;;;18.07;38.85
36062;BME280;22123;52.412;20.970;2023-04-27T10:41:33;100905.00;;;16.63;38.22
36062;BME280;22123;52.412;20.970;2023-04-27T10:44:12;100915.44;;;15.32;40.70
36062;BME280;22123;52.412;20.970;2023-04-27T10:46:49;100871.59;;;13.72;42.65
36062;BME280;22123;52.412;20.970;2023-04-27T10:49:15;100905.84;;;13.33;44.12
36062;BME280;22123;52.412;20.970;2023-04-27T10:51:41;100886.88;;;12.87;45.59
36062;BME280;22123;52.412;20.970;2023-04-27T10:54:07;100871.84;;;12.53;46.36
36062;BME280;22123;52.412;20.970;2023-04-27T10:56:33;100891.53;;;12.14;45.64
36062;BME280;22123;52.412;20.970;2023-04-27T10:59:04;100922.06;;;12.23;47.34
36062;BME280;22123;52.412;20.970;2023-04-27T11:01:30;100920.53;;;12.12;48.44
36062;BME280;22123;52.412;20.970;2023-04-27T11:04:00;100897.81;;;11.98;47.63
36062;BME280;22123;52.412;20.970;2023-04-27T11:06:29;100902.47;;;12.21;50.09
36062;BME280;22123;52.412;20.970;2023-04-27T11:08:55;100904.44;;;13.14;50.07
36062;BME280;22123;52.412;20.970;2023-04-27T11:11:21;100906.97;;;14.38;45.18
36062;BME280;22123;52.412;20.970;2023-04-27T11:13:48;100910.03;;;14.95;44.75
36062;BME280;22123;52.412;20.970;2023-04-27T11:16:14;100880.81;;;14.60;42.87
36062;BME280;22123;52.412;20.970;2023-04-27T11:18:41;100913.44;;;14.67;45.03
36062;BME280;22123;52.412;20.970;2023-04-27T11:21:09;100924.44;;;14.51;44.52
36062;BME280;22123;52.412;20.970;2023-04-27T11:23:35;100899.31;;;14.12;45.62
36062;BME280;22123;52.412;20.970;2023-04-27T11:26:17;100925.88;;;13.94;46.39
36062;BME280;22123;52.412;20.970;2023-04-27T11:28:44;100912.97;;;13.34;47.08
36062;BME280;22123;52.412;20.970;2023-04-27T11:31:21;100912.03;;;12.87;48.92
36062;BME280;22123;52.412;20.970;2023-04-27T11:33:48;100901.47;;;12.22;50.09
36062;BME280;22123;52.412;20.970;2023-04-27T11:36:18;100931.84;;;11.91;51.41
36062;BME280;22123;52.412;20.970;2023-04-27T11:38:44;100896.13;;;11.56;52.65
36062;BME280;22123;52.412;20.970;2023-04-27T11:41:10;100942.97;;;11.63;53.48
36062;BME280;22123;52.412;20.970;2023-04-27T11:43:41;100898.94;;;11.21;53.18
36062;BME280;22123;52.412;20.970;2023-04-27T11:46:08;100903.63;;;11.03;53.48
36062;BME280;22123;52.412;20.970;2023-04-27T11:48:34;100938.66;;;11.11;55.43
36062;BME280;22123;52.412;20.970;2023-04-27T11:51:01;100939.50;;;11.11;56.20
36062;BME280;22123;52.412;20.970;2023-04-27T11:53:30;100908.41;;;11.50;56.00
36062;BME280;22123;52.412;20.970;2023-04-27T11:56:01;100920.56;;;12.68;53.55
36062;BME280;22123;52.412;20.970;2023-04-27T11:58:27;100907.88;;;13.08;49.35
36062;BME280;22123;52.412;20.970;2023-04-27T12:00:55;100899.63;;;13.01;49.88
36062;BME280;22123;52.412;20.970;2023-04-27T12:03:21;100893.22;;;13.02;51.54
36062;BME280;22123;52.412;20.970;2023-04-27T12:05:48;100912.53;;;13.22;50.94
36062;BME280;22123;52.412;20.970;2023-04-27T12:08:18;100917.25;;;13.20;49.50
36062;BME280;22123;52.412;20.970;2023-04-27T12:10:45;100910.22;;;13.11;49.50
36062;BME280;22123;52.412;20.970;2023-04-27T12:13:11;100918.88;;;13.07;50.31
36062;BME280;22123;52.412;20.970;2023-04-27T12:15:37;100918.31;;;12.80;50.33
36062;BME280;22123;52.412;20.970;2023-04-27T12:18:04;100939.31;;;12.61;51.09
36062;BME280;22123;52.412;20.970;2023-04-27T12:20:30;100917.00;;;12.20;52.35
36062;BME280;22123;52.412;20.970;2023-04-27T12:22:56;100902.34;;;12.06;52.20
36062;BME280;22123;52.412;20.970;2023-04-27T12:25:22;100913.63;;;12.09;53.18
36062;BME280;22123;52.412;20.970;2023-04-27T12:27:48;100929.50;;;12.12;53.02
36062;BME280;22123;52.412;20.970;2023-04-27T12:30:14;100855.50;;;11.49;52.75
36062;BME280;22123;52.412;20.970;2023-04-27T12:32:40;100935.88;;;11.87;53.04
36062;BME280;22123;52.412;20.970;2023-04-27T12:35:07;100932.19;;;11.88;53.04
36062;BME280;22123;52.412;20.970;2023-04-27T12:37:33;100939.28;;;11.80;54.20
36062;BME280;22123;52.412;20.970;2023-04-27T12:39:59;100935.19;;;11.93;55.08
36062;BME280;22123;52.412;20.970;2023-04-27T12:42:25;100935.22;;;12.09;53.68
36062;BME280;22123;52.412;20.970;2023-04-27T12:44:51;100931.50;;;12.27;53.26